Mountain Home, Arkansas
Current Conditions -  °F | °C
As of 10:53 AM on Saturday 25 Oct 2014 (Local Time) from KBPK Reporting Station
Clear Clear  
Wind Chill: 71°   Ceiling: Unl
Heat Index: 71°   Visibility: 7mi
Dew Point: 61°   Wind: 5mph
Humidity: 70%   Direction: NA
Pressure: 30.09"   Gusts: NA
Location:  36.34°N, 92.38°W
Report Text: KBPK 251553Z AUTO VRB04KT 7SM CLR 22/16 A3009 RMK AO2 SLP183 T02170161
Loading
Personal Weather Stations






























Interactive Weather Map New forecast layout! Learn more

10-Day Weather Forecast

Advertisements
Track Severe Weather on mobile